Time;durP1;ratioP1;P1;durP2;ratioP2;P2;SDS_P1;SDS_P2;PMS_P1;PMS_P2;Temp;Humidity;BMP_temperature;BMP_pressure;BME280_temperature;BME280_humidity;BME280_pressure;Samples;Min_cycle;Max_cycle;Signal;HPM_P1;HPM_P2
2024/01/18 00:07:07;;;;;;;8.10;2.38;;;-9.90;63.50;;;;;;4721584;30;20071;-85
2024/01/18 00:10:16;;;;;;;;;;;;;;;;;;;;;
2024/01/18 00:13:40;;;;;;;;;;;;;;;;;;;;;
2024/01/18 00:17:20;;;;;;;;;;;;;;;;;;;;;
2024/01/18 00:20:41;;;;;;;;;;;;;;;;;;;;;
2024/01/18 00:54:47;;;;;;;6.97;2.25;;;-10.20;64.20;;;;;;4858931;28;20052;-84
2024/01/18 00:58:48;;;;;;;;;;;;;;;;;;;;;
2024/01/18 01:02:10;;;;;;;;;;;;;;;;;;;;;
2024/01/18 01:06:07;;;;;;;;;;;;;;;;;;;;;
2024/01/18 01:10:11;;;;;;;;;;;;;;;;;;;;;
2024/01/18 01:13:18;;;;;;;5.07;2.22;;;-9.80;62.40;;;;;;4935708;28;20066;-84
2024/01/18 01:16:24;;;;;;;;;;;;;;;;;;;;;
2024/01/18 01:19:29;;;;;;;;;;;;;;;;;;;;;
2024/01/18 01:23:10;;;;;;;;;;;;;;;;;;;;;
2024/01/18 01:26:31;;;;;;;;;;;;;;;;;;;;;
2024/01/18 01:30:10;;;;;;;;;;;;;;;;;;;;;
2024/01/18 01:33:33;;;;;;;4.85;1.60;;;-10.10;63.10;;;;;;4900554;29;20061;-84
2024/01/18 01:36:53;;;;;;;2.17;1.35;;;-10.40;62.00;;;;;;4898645;29;20108;-82
2024/01/18 01:40:19;;;;;;;;;;;;;;;;;;;;;
2024/01/18 01:43:22;;;;;;;;;;;;;;;;;;;;;
2024/01/18 02:21:15;;;;;;;;;;;;;;;;;;;;;
2024/01/18 02:45:59;;;;;;;4.97;1.77;;;-10.60;63.20;;;;;;4766482;29;20555;-81
2024/01/18 02:48:45;;;;;;;3.90;1.80;;;-10.20;60.20;;;;;;4885723;29;20049;-82
2024/01/18 02:51:15;;;;;;;3.92;1.70;;;-10.20;61.30;;;;;;4927274;29;20075;-83
2024/01/18 02:53:51;;;;;;;2.60;1.50;;;-10.10;60.30;;;;;;4949038;28;20078;-84
2024/01/18 02:56:37;;;;;;;;;;;;;;;;;;;;;
2024/01/18 03:00:00;;;;;;;;;;;;;;;;;;;;;
2024/01/18 03:03:41;;;;;;;;;;;;;;;;;;;;;
2024/01/18 03:07:55;;;;;;;;;;;;;;;;;;;;;
2024/01/18 03:11:25;;;;;;;2.78;1.88;;;-10.10;61.00;;;;;;4929818;28;20046;-83
2024/01/18 03:15:14;;;;;;;;;;;;;;;;;;;;;
2024/01/18 03:18:19;;;;;;;5.88;1.80;;;-9.90;60.80;;;;;;4946565;28;20125;-82
2024/01/18 03:20:55;;;;;;;5.38;1.88;;;-10.10;60.30;;;;;;4985751;28;20284;-82
2024/01/18 03:23:32;;;;;;;5.03;2.25;;;-9.70;59.80;;;;;;4994965;28;20049;-83
2024/01/18 03:29:31;;;;;;;7.22;2.00;;;-9.80;59.50;;;;;;5015756;28;20053;-82
2024/01/18 03:33:15;;;;;;;2.55;1.55;;;-10.00;59.40;;;;;;4940501;28;20047;-82
2024/01/18 03:37:18;;;;;;;;;;;;;;;;;;;;;
2024/01/18 03:40:41;;;;;;;;;;;;;;;;;;;;;
2024/01/18 03:48:03;;;;;;;;;;;;;;;;;;;;;
2024/01/18 03:52:18;;;;;;;;;;;;;;;;;;;;;
2024/01/18 04:06:55;;;;;;;10.95;2.05;;;-9.30;57.80;;;;;;4878035;28;20145;-86
2024/01/18 04:09:41;;;;;;;3.22;2.10;;;-9.10;58.40;;;;;;4980688;28;20055;-85
2024/01/18 04:13:02;;;;;;;;;;;;;;;;;;;;;
2024/01/18 04:16:39;;;;;;;;;;;;;;;;;;;;;
2024/01/18 04:20:31;;;;;;;1.80;1.63;;;-9.00;59.70;;;;;;4894046;29;20505;-83
2024/01/18 04:24:29;;;;;;;;;;;;;;;;;;;;;
2024/01/18 04:27:32;;;;;;;5.53;2.70;;;-9.10;58.00;;;;;;4883786;29;20044;-86
2024/01/18 04:30:28;;;;;;;;;;;;;;;;;;;;;
2024/01/18 04:34:45;;;;;;;;;;;;;;;;;;;;;
2024/01/18 04:38:53;;;;;;;;;;;;;;;;;;;;;
2024/01/18 04:42:37;;;;;;;2.88;1.58;;;-8.50;59.50;;;;;;4808288;29;20054;-84
2024/01/18 05:23:42;;;;;;;;;;;;;;;;;;;;;
2024/01/18 05:26:37;;;;;;;2.80;1.88;;;-8.50;57.90;;;;;;4730203;30;20060;-82
2024/01/18 05:29:59;;;;;;;5.88;2.67;;;-8.50;58.00;;;;;;4757833;29;20059;-83
2024/01/18 05:33:21;;;;;;;;;;;;;;;;;;;;;
2024/01/18 05:37:14;;;;;;;;;;;;;;;;;;;;;
2024/01/18 05:43:42;;;;;;;3.05;1.77;;;-7.80;57.70;;;;;;4857993;29;20043;-86
2024/01/18 05:46:18;;;;;;;3.80;2.25;;;-8.30;57.00;;;;;;4963952;28;20066;-84
2024/01/18 05:49:07;;;;;;;4.18;1.73;;;-8.40;56.70;;;;;;4994914;28;20046;-84
2024/01/18 05:51:49;;;;;;;;;;;;;;;;;;;;;
2024/01/18 05:55:26;;;;;;;;;;;;;;;;;;;;;
2024/01/18 05:58:31;;;;;;;2.25;1.50;;;-8.00;58.50;;;;;;4980620;28;20065;-85
2024/01/18 06:02:21;;;;;;;;;;;;;;;;;;;;;
2024/01/18 06:05:30;;;;;;;;;;;;;;;;;;;;;
2024/01/18 06:08:01;;;;;;;4.15;1.30;;;-8.20;57.20;;;;;;4940945;28;20051;-87
2024/01/18 06:10:33;;;;;;;2.03;1.45;;;-8.20;58.10;;;;;;4986317;28;20159;-88
2024/01/18 06:13:10;;;;;;;1.95;1.20;;;-8.10;58.10;;;;;;5017880;28;20164;-86
2024/01/18 06:15:54;;;;;;;2.88;1.35;;;-7.90;58.00;;;;;;4998532;28;20049;-87
2024/01/18 06:18:34;;;;;;;3.08;1.20;;;-8.10;57.40;;;;;;5021983;28;20053;-88
2024/01/18 06:21:21;;;;;;;3.08;1.10;;;-8.40;57.20;;;;;;5001258;28;20042;-84
2024/01/18 06:24:00;;;;;;;4.05;1.45;;;-8.10;57.80;;;;;;4999776;28;20042;-82
2024/01/18 06:26:51;;;;;;;3.13;1.52;;;-8.00;57.80;;;;;;5001405;28;20080;-87
2024/01/18 06:29:26;;;;;;;1.65;1.27;;;-7.90;57.60;;;;;;4989178;28;20051;-88
2024/01/18 06:31:59;;;;;;;4.07;1.42;;;-8.00;58.00;;;;;;5015490;28;20050;-86
2024/01/18 06:34:40;;;;;;;3.03;1.58;;;-8.00;57.70;;;;;;5002933;28;20050;-87
2024/01/18 06:37:14;;;;;;;8.45;1.55;;;-7.60;58.20;;;;;;5000589;28;20050;-88
2024/01/18 06:39:46;;;;;;;1.73;0.90;;;-7.80;58.50;;;;;;5003836;28;20057;-86
2024/01/18 06:42:16;;;;;;;11.55;1.88;;;-7.20;59.20;;;;;;4987596;28;20529;-87
2024/01/18 06:44:46;;;;;;;2.30;0.95;;;-7.80;58.60;;;;;;5008269;28;20092;-86
2024/01/18 06:47:30;;;;;;;5.43;1.35;;;-7.90;58.60;;;;;;4997452;28;20492;-86
2024/01/18 06:50:05;;;;;;;1.67;1.30;;;-7.80;57.40;;;;;;5008025;28;20064;-86
2024/01/18 06:52:41;;;;;;;1.40;1.10;;;-7.80;58.60;;;;;;5010839;28;20169;-87
2024/01/18 06:55:30;;;;;;;1.25;1.15;;;-7.60;56.90;;;;;;5010505;28;20055;-85
2024/01/18 06:58:07;;;;;;;4.82;1.27;;;-7.80;57.40;;;;;;5023296;28;20089;-87
2024/01/18 07:00:39;;;;;;;2.28;0.88;;;-7.70;57.70;;;;;;5020342;28;20054;-88
2024/01/18 07:03:13;;;;;;;3.05;1.20;;;-7.90;56.70;;;;;;5021307;28;20076;-87
2024/01/18 07:06:09;;;;;;;1.83;1.38;;;-7.70;57.10;;;;;;5009092;28;20045;-88
2024/01/18 07:08:42;;;;;;;4.50;1.08;;;-7.70;58.40;;;;;;5003405;28;20510;-85
2024/01/18 07:11:15;;;;;;;1.13;0.77;;;-7.70;57.50;;;;;;5006340;28;20050;-81
2024/01/18 07:13:55;;;;;;;1.10;0.85;;;-7.70;57.50;;;;;;5003943;28;20053;-82
2024/01/18 07:16:36;;;;;;;3.05;0.80;;;-7.90;57.40;;;;;;5004512;28;20423;-82
2024/01/18 07:19:13;;;;;;;2.05;1.17;;;-7.90;58.00;;;;;;4999156;28;20149;-81
2024/01/18 07:21:42;;;;;;;5.95;0.75;;;-7.60;58.20;;;;;;4986489;28;20426;-80
2024/01/18 07:24:11;;;;;;;1.70;0.82;;;-7.90;57.80;;;;;;5005423;28;20046;-85
2024/01/18 07:26:39;;;;;;;1.50;0.82;;;-8.10;58.40;;;;;;5015324;28;20046;-85
2024/01/18 07:29:08;;;;;;;1.75;0.70;;;-7.60;58.70;;;;;;5015778;28;20043;-85
2024/01/18 07:31:37;;;;;;;2.70;1.17;;;-8.00;57.50;;;;;;5016789;28;20050;-84
2024/01/18 07:34:17;;;;;;;1.50;1.23;;;-8.00;58.00;;;;;;5018332;28;20053;-82
2024/01/18 07:36:56;;;;;;;1.70;0.90;;;-8.10;58.00;;;;;;5001130;28;20301;-84
2024/01/18 07:39:23;;;;;;;1.77;1.00;;;-8.00;58.10;;;;;;4989815;28;20096;-84
2024/01/18 07:41:51;;;;;;;3.42;1.33;;;-8.10;57.30;;;;;;5025917;28;20136;-85
2024/01/18 07:44:23;;;;;;;3.75;1.50;;;-8.20;57.40;;;;;;5006675;28;20064;-84
2024/01/18 07:47:16;;;;;;;4.68;1.33;;;-8.10;57.50;;;;;;5001731;28;20046;-84
2024/01/18 07:50:12;;;;;;;3.13;1.00;;;-8.10;57.60;;;;;;5006903;28;20049;-84
2024/01/18 07:52:49;;;;;;;2.40;1.05;;;-7.80;59.90;;;;;;5029172;28;20076;-83
2024/01/18 07:56:23;;;;;;;1.17;0.85;;;-7.90;57.50;;;;;;5000540;28;20137;-86
2024/01/18 07:59:14;;;;;;;4.63;1.08;;;-8.10;58.30;;;;;;4948693;28;20091;-86
2024/01/18 08:02:00;;;;;;;2.70;0.70;;;-8.10;57.60;;;;;;5024736;28;20089;-84
2024/01/18 08:05:08;;;;;;;1.73;1.05;;;-7.80;57.90;;;;;;4971892;28;20074;-87
2024/01/18 08:08:15;;;;;;;1.25;0.90;;;-7.70;57.80;;;;;;4972095;28;20046;-86
2024/01/18 08:11:18;;;;;;;2.15;0.90;;;-7.90;57.30;;;;;;4984040;28;20054;-87
2024/01/18 08:13:47;;;;;;;2.00;1.00;;;-8.00;57.90;;;;;;4999080;28;20052;-85
2024/01/18 08:19:58;;;;;;;0.85;0.75;;;-7.60;57.60;;;;;;4953191;28;20166;-85
2024/01/18 08:29:40;;;;;;;1.25;0.75;;;-7.40;57.40;;;;;;4787123;29;20047;-87
2024/01/18 08:39:14;;;;;;;1.35;0.40;;;-7.90;56.80;;;;;;4814417;29;20165;-83
2024/01/18 08:42:03;;;;;;;1.52;1.33;;;-7.90;57.70;;;;;;4961927;28;20174;-87
2024/01/18 08:45:53;;;;;;;;;;;;;;;;;;;;;
2024/01/18 08:50:03;;;;;;;2.53;1.33;;;-7.70;56.60;;;;;;4987860;28;20068;-82
2024/01/18 09:01:16;;;;;;;3.22;0.80;;;-7.50;56.70;;;;;;4976782;28;20058;-84
2024/01/18 09:07:29;;;;;;;1.08;0.60;;;-7.60;57.40;;;;;;4958677;28;20150;-83
2024/01/18 09:09:57;;;;;;;3.88;1.77;;;-7.30;57.90;;;;;;4982853;28;20465;-84
2024/01/18 09:12:31;;;;;;;1.65;0.80;;;-7.60;59.30;;;;;;5008059;28;20060;-84
2024/01/18 09:15:10;;;;;;;1.00;0.73;;;-7.30;59.40;;;;;;5019950;28;20080;-84
2024/01/18 09:18:44;;;;;;;1.83;1.10;;;-7.60;59.40;;;;;;5007658;28;20047;-82
2024/01/18 09:21:24;;;;;;;6.28;0.98;;;-7.50;61.70;;;;;;5023190;28;20101;-82
2024/01/18 09:23:59;;;;;;;1.80;0.88;;;-7.30;61.20;;;;;;5046123;28;20453;-85
2024/01/18 09:26:28;;;;;;;2.15;1.00;;;-7.30;64.20;;;;;;5026543;28;20046;-84
2024/01/18 09:28:58;;;;;;;1.70;0.63;;;-7.40;62.30;;;;;;5027428;28;20026;-86
2024/01/18 09:31:31;;;;;;;3.13;1.38;;;-7.40;61.50;;;;;;5025802;28;20263;-86
2024/01/18 09:33:59;;;;;;;2.10;1.00;;;-7.50;64.00;;;;;;5040045;28;20046;-87
2024/01/18 09:36:30;;;;;;;0.90;0.85;;;-7.50;64.80;;;;;;5041772;28;20052;-85
2024/01/18 09:38:59;;;;;;;1.85;1.00;;;-7.60;65.70;;;;;;5058197;28;20041;-83
2024/01/18 09:41:35;;;;;;;1.70;1.27;;;-7.50;67.10;;;;;;5058444;28;20061;-85
2024/01/18 09:44:05;;;;;;;1.80;1.02;;;-7.60;66.80;;;;;;5043040;28;20149;-86
2024/01/18 09:46:36;;;;;;;2.28;1.25;;;-7.50;67.60;;;;;;5045062;28;20049;-84
2024/01/18 09:49:07;;;;;;;3.30;1.15;;;-7.50;67.70;;;;;;5051365;28;20041;-85
2024/01/18 09:51:37;;;;;;;1.42;1.02;;;-7.60;69.20;;;;;;5049077;28;20049;-86
